Terminal Aerodrome Forecast
Issued by NWS Portland, OR

Home | Current Version | Previous Version | Text Only | Print | Product List | Glossary On
Versions: 1 2 3 4 5 6 7 8 9 10 11 12 13
000
FTUS46 KPQR 221727
TAFAST
TAF
KAST 221727Z 2218/2318 22010KT P6SM -SHRA SCT030 OVC060
     FM222200 25009KT P6SM VCSH BKN035 BKN060
     FM230300 21005KT P6SM SCT020 OVC060
     FM231200 VRB03KT 4SM BR BKN060=

USA.gov is the U.S. government's official web portal to all federal, state and local government web resources and services.